Time;durP1;ratioP1;P1;durP2;ratioP2;P2;SDS_P1;SDS_P2;PMS_P1;PMS_P2;Temp;Humidity;BMP_temperature;BMP_pressure;BME280_temperature;BME280_humidity;BME280_pressure;Samples;Min_cycle;Max_cycle;Signal;HPM_P1;HPM_P2
2023/02/22 00:00:43;;;;;;;4.43;2.50;;;6.00;99.90;;;;;;5045543;28;20112;-77
2023/02/22 00:03:14;;;;;;;4.55;2.85;;;5.90;99.90;;;;;;5062665;28;20032;-77
2023/02/22 00:05:45;;;;;;;2.97;2.65;;;5.90;99.90;;;;;;5061930;28;20036;-77
2023/02/22 00:08:16;;;;;;;3.47;2.72;;;5.90;99.90;;;;;;5062719;28;20029;-77
2023/02/22 00:10:43;;;;;;;3.33;2.85;;;5.90;99.90;;;;;;5048965;28;20028;-77
2023/02/22 00:13:12;;;;;;;4.80;3.15;;;5.90;99.90;;;;;;5069920;28;20151;-77
2023/02/22 00:15:41;;;;;;;4.00;2.55;;;5.90;99.90;;;;;;5066684;28;20032;-77
2023/02/22 00:18:11;;;;;;;4.38;3.42;;;5.90;99.90;;;;;;5062646;28;20028;-77
2023/02/22 00:20:37;;;;;;;3.88;3.00;;;5.90;99.90;;;;;;5064825;28;20032;-77
2023/02/22 00:23:12;;;;;;;4.18;3.03;;;5.80;99.90;;;;;;5065370;28;20603;-77
2023/02/22 00:25:38;;;;;;;6.55;4.28;;;5.80;99.90;;;;;;5059797;28;20029;-77
2023/02/22 00:28:04;;;;;;;6.15;4.15;;;5.70;99.90;;;;;;5066619;28;20039;-77
2023/02/22 00:30:32;;;;;;;4.95;3.80;;;5.70;99.90;;;;;;5066737;28;20024;-77
2023/02/22 00:32:59;;;;;;;9.07;4.47;;;5.70;99.90;;;;;;5066545;28;20032;-77
2023/02/22 00:35:27;;;;;;;6.25;4.57;;;5.70;99.90;;;;;;5061114;28;20553;-77
2023/02/22 00:37:59;;;;;;;4.72;3.70;;;5.70;99.90;;;;;;5058878;28;20032;-77
2023/02/22 00:40:29;;;;;;;5.13;4.38;;;5.60;99.90;;;;;;5063598;28;20028;-77
2023/02/22 00:42:56;;;;;;;7.50;4.68;;;5.60;99.90;;;;;;5055095;28;20093;-77
2023/02/22 00:45:24;;;;;;;5.90;4.63;;;5.60;99.90;;;;;;5022806;28;20071;-77
2023/02/22 00:47:52;;;;;;;6.32;4.15;;;5.60;99.90;;;;;;5066645;28;20116;-77
2023/02/22 00:50:18;;;;;;;5.13;3.60;;;5.60;99.90;;;;;;5069048;28;20089;-78
2023/02/22 00:52:44;;;;;;;6.03;3.78;;;5.60;99.90;;;;;;5052219;28;20064;-77
2023/02/22 00:55:16;;;;;;;4.20;3.40;;;5.50;99.90;;;;;;5068875;28;20032;-77
2023/02/22 00:57:42;;;;;;;6.03;4.28;;;5.50;99.90;;;;;;5048719;28;20044;-77
2023/02/22 01:00:13;;;;;;;5.22;3.80;;;5.50;99.90;;;;;;5059003;28;20086;-77
2023/02/22 01:02:41;;;;;;;6.32;3.80;;;5.40;99.90;;;;;;5067263;28;20397;-77
2023/02/22 01:05:11;;;;;;;3.55;3.00;;;5.30;99.90;;;;;;5066146;28;20476;-78
2023/02/22 01:07:38;;;;;;;6.43;3.38;;;5.30;99.90;;;;;;5052360;28;20043;-77
2023/02/22 01:10:05;;;;;;;5.10;3.40;;;5.20;99.90;;;;;;5055147;28;20035;-77
2023/02/22 01:12:31;;;;;;;4.20;3.55;;;5.20;99.90;;;;;;5071948;28;20028;-77
2023/02/22 01:14:57;;;;;;;6.15;3.83;;;5.20;99.90;;;;;;5055487;28;20025;-78
2023/02/22 01:17:24;;;;;;;4.57;3.78;;;5.10;99.90;;;;;;5071603;28;20094;-77
2023/02/22 01:19:51;;;;;;;3.90;3.50;;;5.10;99.90;;;;;;5039818;28;20032;-77
2023/02/22 01:22:18;;;;;;;5.88;3.58;;;5.10;99.90;;;;;;5070113;28;20039;-78
2023/02/22 01:24:44;;;;;;;5.90;3.63;;;5.10;99.90;;;;;;5073462;28;20028;-77
2023/02/22 01:27:11;;;;;;;4.60;3.85;;;5.10;99.90;;;;;;5071966;28;20028;-77
2023/02/22 01:29:38;;;;;;;5.78;3.80;;;5.10;99.90;;;;;;5069432;28;20120;-78
2023/02/22 01:32:06;;;;;;;5.22;3.63;;;5.10;99.90;;;;;;5063152;28;20056;-77
2023/02/22 01:34:33;;;;;;;5.82;3.83;;;5.00;99.90;;;;;;5062180;28;20472;-78
2023/02/22 01:37:00;;;;;;;4.97;3.75;;;5.00;99.90;;;;;;5069823;28;20032;-78
2023/02/22 01:39:26;;;;;;;4.32;3.25;;;5.00;99.90;;;;;;5072151;28;20060;-77
2023/02/22 01:41:52;;;;;;;5.32;3.17;;;5.00;99.90;;;;;;5071955;28;20566;-77
2023/02/22 01:44:21;;;;;;;4.55;2.67;;;5.00;99.90;;;;;;5053005;28;20040;-77
2023/02/22 01:46:47;;;;;;;3.85;3.10;;;4.90;99.90;;;;;;5053872;28;20028;-78
2023/02/22 01:49:14;;;;;;;5.13;3.17;;;4.90;99.90;;;;;;5070292;28;20029;-78
2023/02/22 01:51:47;;;;;;;4.05;2.90;;;4.90;99.90;;;;;;5070886;28;20025;-78
2023/02/22 01:54:45;;;;;;;2.85;2.45;;;4.80;99.90;;;;;;5051736;28;20397;-77
2023/02/22 01:57:30;;;;;;;3.33;3.03;;;4.80;99.90;;;;;;5064883;28;20107;-77
2023/02/22 02:00:00;;;;;;;5.53;3.00;;;4.80;99.90;;;;;;5052099;28;20051;-77
2023/02/22 02:02:27;;;;;;;3.80;3.08;;;4.80;99.90;;;;;;5037798;28;20214;-77
2023/02/22 02:04:55;;;;;;;5.57;3.47;;;4.80;99.90;;;;;;5052996;28;20160;-78
2023/02/22 02:07:22;;;;;;;3.70;3.25;;;4.80;99.90;;;;;;5068032;28;20436;-77
2023/02/22 02:10:00;;;;;;;4.88;3.80;;;4.70;99.90;;;;;;5079550;28;20021;-77
2023/02/22 02:12:33;;;;;;;5.20;3.60;;;4.70;99.90;;;;;;5068037;28;20052;-78
2023/02/22 02:15:18;;;;;;;6.25;3.92;;;4.70;99.90;;;;;;5062136;28;20271;-77
2023/02/22 02:17:45;;;;;;;5.00;3.33;;;4.70;99.90;;;;;;5078669;28;20055;-77
2023/02/22 02:21:08;;;;;;;4.03;3.30;;;4.70;99.90;;;;;;5063056;28;20131;-78
2023/02/22 02:24:11;;;;;;;5.75;3.97;;;4.70;99.90;;;;;;5039985;28;20022;-77
2023/02/22 02:27:04;;;;;;;4.13;3.50;;;4.60;99.90;;;;;;5042287;28;20683;-77
2023/02/22 02:29:53;;;;;;;5.22;3.85;;;4.40;99.90;;;;;;5070080;28;20104;-77
2023/02/22 02:32:47;;;;;;;7.35;3.75;;;4.40;99.90;;;;;;5064139;28;20021;-78
2023/02/22 02:35:37;;;;;;;5.70;3.30;;;4.30;99.90;;;;;;5063711;28;20106;-77
2023/02/22 02:38:37;;;;;;;6.38;4.53;;;4.30;99.90;;;;;;5066265;28;20443;-77
2023/02/22 02:41:15;;;;;;;7.47;5.25;;;4.30;99.90;;;;;;5046590;28;20090;-77
2023/02/22 02:44:03;;;;;;;6.72;4.93;;;4.30;99.90;;;;;;5068374;28;20033;-77
2023/02/22 02:46:36;;;;;;;6.80;4.53;;;4.30;99.90;;;;;;5069127;28;20025;-77
2023/02/22 02:49:09;;;;;;;5.45;4.57;;;4.30;99.90;;;;;;5063195;28;20037;-77
2023/02/22 02:51:43;;;;;;;6.72;4.35;;;4.30;99.90;;;;;;5048667;28;20167;-77
2023/02/22 02:54:10;;;;;;;8.98;4.55;;;4.30;99.90;;;;;;5065698;28;20058;-78
2023/02/22 02:56:36;;;;;;;5.43;4.25;;;4.30;99.90;;;;;;5064192;28;20047;-77
2023/02/22 02:59:02;;;;;;;7.50;4.25;;;4.30;99.90;;;;;;5065929;28;20041;-77
2023/02/22 03:01:43;;;;;;;5.00;4.00;;;4.30;99.90;;;;;;5069374;28;20032;-77
2023/02/22 03:04:19;;;;;;;6.25;4.28;;;4.20;99.90;;;;;;5071978;28;20388;-77
2023/02/22 03:07:01;;;;;;;5.10;4.00;;;4.20;99.90;;;;;;5064860;28;20036;-77
2023/02/22 03:09:27;;;;;;;8.05;4.30;;;4.20;99.90;;;;;;5062697;28;20028;-77
2023/02/22 03:12:22;;;;;;;6.63;3.78;;;4.20;99.90;;;;;;5067279;28;20029;-77
2023/02/22 03:15:05;;;;;;;5.68;3.85;;;4.20;99.90;;;;;;5057535;28;20044;-78
2023/02/22 03:17:46;;;;;;;5.35;3.20;;;4.10;99.90;;;;;;5054301;28;20374;-77
2023/02/22 03:20:30;;;;;;;3.97;3.42;;;4.00;99.90;;;;;;5065495;28;20499;-77
2023/02/22 03:23:02;;;;;;;;;;;4.00;99.90;;;;;;5061887;28;20476;-78
2023/02/22 03:25:42;;;;;;;3.65;3.17;;;4.00;99.90;;;;;;5049081;28;19984;-77
2023/02/22 03:28:12;;;;;;;3.40;2.95;;;4.00;99.90;;;;;;5064816;28;20070;-78
2023/02/22 03:31:04;;;;;;;4.97;2.58;;;4.00;99.90;;;;;;5049677;28;20101;-77
2023/02/22 03:33:40;;;;;;;2.53;1.98;;;3.90;99.90;;;;;;5082552;28;20052;-78
2023/02/22 03:36:18;;;;;;;3.05;2.45;;;3.90;99.90;;;;;;5066159;28;20103;-78
2023/02/22 03:38:45;;;;;;;3.70;2.72;;;3.90;99.90;;;;;;5063262;28;20033;-78
2023/02/22 03:41:17;;;;;;;3.42;2.90;;;3.90;99.90;;;;;;5065896;28;20078;-78
2023/02/22 03:43:47;;;;;;;4.88;3.00;;;3.80;99.90;;;;;;5061500;28;20047;-77
2023/02/22 03:46:15;;;;;;;3.53;2.70;;;3.80;99.90;;;;;;5067191;28;20029;-77
2023/02/22 03:48:56;;;;;;;5.38;2.75;;;3.80;99.90;;;;;;5065456;28;20147;-78
2023/02/22 03:51:23;;;;;;;3.40;3.10;;;3.80;99.90;;;;;;5070066;28;20078;-78
2023/02/22 03:53:53;;;;;;;4.88;3.30;;;3.80;99.90;;;;;;5044420;28;20051;-77
2023/02/22 03:56:34;;;;;;;3.75;3.25;;;3.70;99.90;;;;;;5070215;28;20123;-77
2023/02/22 03:59:07;;;;;;;3.75;3.08;;;3.70;99.90;;;;;;5064703;28;20037;-78
2023/02/22 04:01:33;;;;;;;4.25;2.83;;;3.70;99.90;;;;;;5068989;28;20025;-78
2023/02/22 04:03:59;;;;;;;3.38;2.70;;;3.70;99.90;;;;;;5069877;28;20063;-78
2023/02/22 04:06:26;;;;;;;4.93;3.17;;;3.70;99.90;;;;;;5050925;28;20135;-78
2023/02/22 04:08:53;;;;;;;3.80;3.42;;;3.70;99.90;;;;;;5069925;28;20568;-78
2023/02/22 04:11:20;;;;;;;3.47;3.17;;;3.70;99.90;;;;;;5035807;28;20032;-78
2023/02/22 04:13:46;;;;;;;5.13;3.15;;;3.60;99.90;;;;;;5051932;28;20033;-78
2023/02/22 04:16:12;;;;;;;4.13;3.35;;;3.60;99.90;;;;;;5053031;28;20608;-78
2023/02/22 04:18:38;;;;;;;3.72;2.83;;;3.60;99.90;;;;;;5067531;28;20083;-79
2023/02/22 04:21:05;;;;;;;2.95;2.70;;;3.60;99.90;;;;;;5053474;28;20503;-78
2023/02/22 04:23:38;;;;;;;6.57;2.83;;;3.60;99.90;;;;;;5051123;28;20029;-78
2023/02/22 04:26:04;;;;;;;2.95;2.40;;;3.50;99.90;;;;;;5069763;28;20558;-78
2023/02/22 04:28:30;;;;;;;2.10;1.90;;;3.50;99.90;;;;;;5067839;28;20025;-78
2023/02/22 04:31:09;;;;;;;3.13;2.83;;;3.50;99.90;;;;;;5070356;28;20021;-78
2023/02/22 04:33:35;;;;;;;3.35;3.05;;;3.50;99.90;;;;;;5051625;28;20025;-78
2023/02/22 04:36:01;;;;;;;3.70;3.20;;;3.40;99.90;;;;;;5063666;28;20028;-78
2023/02/22 04:38:30;;;;;;;4.45;3.53;;;3.40;99.90;;;;;;5066992;28;20032;-78
2023/02/22 04:40:57;;;;;;;4.80;3.30;;;3.40;99.90;;;;;;5053374;28;20020;-78
2023/02/22 04:43:24;;;;;;;4.40;3.50;;;3.40;99.90;;;;;;5038817;28;20192;-78
2023/02/22 04:45:53;;;;;;;3.63;2.92;;;3.40;99.90;;;;;;5059943;28;20048;-78
2023/02/22 04:48:19;;;;;;;3.40;3.10;;;3.40;99.90;;;;;;5057418;28;20414;-78
2023/02/22 04:50:46;;;;;;;2.80;2.50;;;3.40;99.90;;;;;;5059659;28;20021;-78
2023/02/22 04:53:13;;;;;;;4.78;2.75;;;3.40;99.90;;;;;;5056304;28;20032;-78
2023/02/22 04:55:38;;;;;;;5.47;3.03;;;3.30;99.90;;;;;;5057696;28;20036;-78
2023/02/22 04:58:04;;;;;;;3.20;2.90;;;3.30;99.90;;;;;;5058106;28;20111;-77
2023/02/22 05:00:30;;;;;;;6.10;3.28;;;3.20;99.90;;;;;;5069079;28;20032;-76
2023/02/22 05:02:59;;;;;;;3.90;3.30;;;3.20;99.90;;;;;;5059062;28;20036;-76
2023/02/22 05:05:25;;;;;;;5.90;4.30;;;3.20;99.90;;;;;;5066443;28;20059;-77
2023/02/22 05:07:52;;;;;;;5.20;3.35;;;3.20;99.90;;;;;;5072228;28;20091;-77
2023/02/22 05:10:18;;;;;;;4.53;2.85;;;3.20;99.90;;;;;;5072179;28;20029;-77
2023/02/22 05:12:44;;;;;;;2.85;2.58;;;3.20;99.90;;;;;;5073514;28;20024;-78
2023/02/22 05:15:16;;;;;;;3.58;2.75;;;3.20;99.90;;;;;;5073725;28;20039;-78
2023/02/22 05:17:41;;;;;;;6.15;3.20;;;3.20;99.90;;;;;;5077687;28;20025;-78
2023/02/22 05:20:14;;;;;;;4.53;3.88;;;3.20;99.90;;;;;;5071350;28;20487;-77
2023/02/22 05:22:40;;;;;;;5.45;3.95;;;3.10;99.90;;;;;;5035991;28;20378;-78
2023/02/22 05:25:06;;;;;;;4.53;3.58;;;3.10;99.90;;;;;;5072690;28;20093;-79
2023/02/22 05:27:31;;;;;;;8.70;3.83;;;3.10;99.90;;;;;;5064440;28;20123;-79
2023/02/22 05:29:58;;;;;;;5.05;3.47;;;3.10;99.90;;;;;;5044817;28;20127;-78
2023/02/22 05:32:24;;;;;;;6.82;3.50;;;3.10;99.90;;;;;;5053896;28;20123;-79
2023/02/22 05:34:49;;;;;;;6.57;4.28;;;3.10;99.90;;;;;;5056624;28;20039;-79
2023/02/22 05:37:15;;;;;;;5.40;4.22;;;3.10;99.90;;;;;;5076311;28;20052;-79
2023/02/22 05:39:41;;;;;;;4.85;4.18;;;3.10;99.90;;;;;;5070065;28;20170;-78
2023/02/22 05:42:07;;;;;;;6.82;3.83;;;3.10;99.90;;;;;;5069647;28;20055;-78
2023/02/22 05:44:33;;;;;;;5.13;4.28;;;3.00;99.90;;;;;;5071304;28;20086;-78
2023/02/22 05:46:58;;;;;;;5.75;4.22;;;3.00;99.90;;;;;;5074592;28;20070;-78
2023/02/22 05:49:24;;;;;;;5.53;4.53;;;3.00;99.90;;;;;;5070878;28;20036;-78
2023/02/22 05:51:50;;;;;;;15.57;4.97;;;3.00;99.90;;;;;;5067046;28;20029;-79
2023/02/22 05:54:16;;;;;;;5.65;4.63;;;2.90;99.90;;;;;;5043674;28;20497;-78
2023/02/22 05:56:42;;;;;;;8.07;5.68;;;2.90;99.90;;;;;;5064462;28;20037;-79
2023/02/22 05:59:07;;;;;;;9.05;6.03;;;3.00;99.90;;;;;;5064625;28;20048;-77
2023/02/22 06:01:33;;;;;;;8.30;5.60;;;3.00;99.90;;;;;;5068479;28;20020;-78
2023/02/22 06:03:59;;;;;;;13.57;9.85;;;3.00;99.90;;;;;;5059971;28;20033;-78
2023/02/22 06:06:25;;;;;;;38.25;21.10;;;2.90;99.90;;;;;;5068185;28;20037;-78
2023/02/22 06:08:50;;;;;;;17.05;9.85;;;2.90;99.90;;;;;;5070239;28;20043;-78
2023/02/22 06:11:18;;;;;;;11.88;7.65;;;2.90;99.90;;;;;;5054712;28;20052;-78
2023/02/22 06:13:52;;;;;;;7.72;6.28;;;2.90;99.90;;;;;;5068509;28;20035;-79
2023/02/22 06:16:20;;;;;;;8.52;5.70;;;2.90;99.90;;;;;;5071154;28;20031;-78
2023/02/22 06:18:46;;;;;;;9.50;6.40;;;2.90;99.90;;;;;;5072535;28;20025;-78
2023/02/22 06:21:12;;;;;;;12.13;7.20;;;2.90;99.90;;;;;;5069430;28;20036;-79
2023/02/22 06:23:38;;;;;;;12.07;8.05;;;3.00;99.90;;;;;;5048928;28;20043;-79
2023/02/22 06:26:04;;;;;;;10.13;7.00;;;3.00;99.90;;;;;;5047178;28;20040;-78
2023/02/22 06:28:30;;;;;;;10.70;6.47;;;3.00;99.90;;;;;;5049689;28;20375;-78
2023/02/22 06:30:56;;;;;;;11.27;7.45;;;3.10;99.90;;;;;;5069103;28;20055;-78
2023/02/22 06:33:21;;;;;;;10.05;6.28;;;3.10;99.90;;;;;;5052114;28;20025;-78
2023/02/22 06:35:47;;;;;;;11.57;8.48;;;3.10;99.90;;;;;;5049261;28;20082;-78
2023/02/22 06:38:23;;;;;;;13.15;7.82;;;3.10;99.90;;;;;;5067719;28;20107;-78
2023/02/22 06:40:49;;;;;;;11.23;7.07;;;3.20;99.90;;;;;;5067209;28;20078;-78
2023/02/22 06:43:15;;;;;;;11.65;7.70;;;3.20;99.90;;;;;;5065765;28;20041;-78
2023/02/22 06:45:41;;;;;;;17.25;7.90;;;3.30;99.90;;;;;;5070436;28;20085;-78
2023/02/22 06:48:08;;;;;;;8.73;6.35;;;3.40;99.90;;;;;;5070288;28;20029;-79
2023/02/22 06:50:33;;;;;;;14.20;7.43;;;3.40;99.90;;;;;;5051452;28;20036;-79
2023/02/22 06:52:59;;;;;;;13.63;8.15;;;3.40;99.90;;;;;;5051419;28;20489;-79
2023/02/22 06:55:28;;;;;;;18.55;9.63;;;3.50;99.90;;;;;;5069032;28;20131;-79
2023/02/22 06:57:54;;;;;;;14.52;8.95;;;3.50;99.90;;;;;;5051937;28;20089;-79
2023/02/22 07:00:23;;;;;;;13.73;7.90;;;3.60;99.90;;;;;;5064265;28;20040;-79
2023/02/22 07:02:50;;;;;;;13.68;7.18;;;3.70;99.90;;;;;;5036134;28;20041;-78
2023/02/22 07:05:19;;;;;;;9.93;6.50;;;3.80;99.90;;;;;;5033332;28;20131;-79
2023/02/22 07:07:46;;;;;;;7.80;6.30;;;3.90;99.90;;;;;;5073459;28;20587;-79
2023/02/22 07:10:24;;;;;;;7.18;4.90;;;3.90;99.90;;;;;;5072175;28;20477;-79
2023/02/22 07:12:53;;;;;;;4.50;3.67;;;4.10;99.90;;;;;;5071135;28;20031;-79
2023/02/22 07:15:22;;;;;;;5.30;4.28;;;4.20;99.90;;;;;;5066784;28;20039;-79
2023/02/22 07:17:49;;;;;;;6.22;4.43;;;4.40;99.90;;;;;;5088055;28;20089;-79
2023/02/22 07:20:16;;;;;;;6.07;4.60;;;4.50;99.90;;;;;;5063983;28;20477;-79
2023/02/22 07:22:42;;;;;;;5.70;4.82;;;4.60;99.90;;;;;;5072192;28;20025;-79
2023/02/22 07:25:10;;;;;;;8.70;5.90;;;4.80;99.90;;;;;;5071494;28;20075;-78
2023/02/22 07:27:40;;;;;;;8.48;6.43;;;4.90;99.90;;;;;;5071705;28;20044;-79
2023/02/22 07:30:09;;;;;;;6.35;5.40;;;5.10;99.90;;;;;;5066880;28;20035;-78
2023/02/22 07:32:35;;;;;;;4.85;3.35;;;5.20;99.90;;;;;;5071937;28;20021;-79
2023/02/22 07:35:01;;;;;;;4.20;3.38;;;5.40;99.90;;;;;;5068555;28;20054;-78
2023/02/22 07:37:28;;;;;;;5.90;3.58;;;5.50;99.90;;;;;;5071838;28;20078;-79
2023/02/22 07:39:54;;;;;;;6.57;4.35;;;5.50;99.90;;;;;;5073087;28;20123;-79
2023/02/22 07:42:19;;;;;;;5.10;3.67;;;5.60;99.90;;;;;;5071574;28;20144;-79
2023/02/22 07:44:45;;;;;;;5.63;3.72;;;5.70;99.90;;;;;;5074438;28;20117;-78
2023/02/22 07:47:11;;;;;;;4.57;3.92;;;5.80;99.90;;;;;;5072446;28;20033;-78
2023/02/22 07:49:37;;;;;;;6.03;4.70;;;6.00;99.90;;;;;;5055036;28;20033;-79
2023/02/22 07:52:05;;;;;;;5.78;5.15;;;6.00;99.90;;;;;;5070452;28;20034;-78
2023/02/22 07:54:30;;;;;;;9.77;6.53;;;6.10;99.90;;;;;;5069619;28;20529;-78
2023/02/22 07:56:56;;;;;;;7.07;6.20;;;6.20;99.90;;;;;;5073730;28;20036;-78
2023/02/22 07:59:22;;;;;;;8.43;6.63;;;6.30;99.90;;;;;;5067355;28;20117;-78
2023/02/22 08:01:49;;;;;;;10.07;7.63;;;6.40;99.90;;;;;;5071784;28;20055;-78
2023/02/22 08:04:15;;;;;;;8.30;6.47;;;6.50;99.90;;;;;;5053706;28;20525;-78
2023/02/22 08:06:40;;;;;;;7.35;5.70;;;6.70;99.90;;;;;;5072011;28;20033;-78
2023/02/22 08:09:06;;;;;;;6.78;4.88;;;6.90;99.90;;;;;;5073049;28;20025;-78
2023/02/22 08:11:32;;;;;;;6.90;4.95;;;7.10;99.90;;;;;;5066541;28;20489;-78
2023/02/22 08:13:58;;;;;;;6.15;5.40;;;7.30;99.90;;;;;;5070123;28;20029;-78
2023/02/22 08:16:23;;;;;;;6.07;5.20;;;7.50;99.90;;;;;;5048476;28;20053;-79
2023/02/22 08:18:49;;;;;;;7.72;6.20;;;7.70;99.90;;;;;;5072934;28;20103;-78
2023/02/22 08:21:15;;;;;;;9.88;7.00;;;7.80;99.90;;;;;;5073846;28;20033;-78
2023/02/22 08:23:41;;;;;;;6.70;5.43;;;7.90;99.90;;;;;;5066755;28;20505;-78
2023/02/22 08:26:14;;;;;;;8.73;6.90;;;7.90;99.90;;;;;;5065832;28;20043;-78
2023/02/22 08:28:40;;;;;;;8.63;6.85;;;8.00;99.90;;;;;;5055674;28;20063;-78
2023/02/22 08:31:07;;;;;;;9.20;7.28;;;8.10;99.90;;;;;;5071164;28;20492;-78
2023/02/22 08:33:34;;;;;;;9.85;7.57;;;8.10;99.90;;;;;;5066941;28;20037;-78
2023/02/22 08:36:00;;;;;;;8.57;6.85;;;8.20;99.90;;;;;;5069727;28;20505;-78
2023/02/22 08:38:29;;;;;;;8.68;6.68;;;8.20;99.90;;;;;;5055082;28;20028;-78
2023/02/22 08:40:55;;;;;;;8.65;7.00;;;8.30;99.90;;;;;;5069211;28;20138;-78
2023/02/22 08:43:22;;;;;;;9.82;6.97;;;8.30;99.90;;;;;;5065866;28;20025;-77
2023/02/22 08:45:48;;;;;;;10.02;7.00;;;8.30;99.90;;;;;;5069805;28;20107;-78
2023/02/22 08:48:15;;;;;;;10.85;6.53;;;8.40;99.90;;;;;;5066802;28;20043;-78
2023/02/22 08:50:41;;;;;;;9.52;7.72;;;8.30;99.90;;;;;;5052740;28;20052;-78
2023/02/22 08:53:09;;;;;;;10.45;7.35;;;8.40;99.90;;;;;;5094290;28;20105;-78
2023/02/22 08:55:37;;;;;;;9.40;6.93;;;8.40;99.90;;;;;;5052387;28;20052;-78
2023/02/22 08:58:08;;;;;;;9.77;6.63;;;8.50;99.90;;;;;;5070681;28;20024;-78
2023/02/22 09:00:34;;;;;;;10.07;6.70;;;8.50;99.90;;;;;;5054568;28;20039;-78
2023/02/22 09:03:02;;;;;;;7.78;6.32;;;8.60;99.90;;;;;;5066759;28;20409;-78
2023/02/22 09:05:28;;;;;;;8.98;6.57;;;8.70;99.90;;;;;;5064554;28;20443;-77
2023/02/22 09:07:54;;;;;;;11.35;6.00;;;8.80;99.90;;;;;;5063477;28;20060;-78
2023/02/22 09:10:23;;;;;;;8.88;5.88;;;8.80;99.90;;;;;;5067394;28;20121;-78
2023/02/22 09:12:51;;;;;;;7.43;5.95;;;8.90;99.90;;;;;;5065179;28;20040;-78
2023/02/22 09:15:17;;;;;;;7.90;5.82;;;8.90;99.90;;;;;;5066392;28;20031;-78
2023/02/22 09:17:43;;;;;;;7.82;5.50;;;9.00;99.90;;;;;;5062656;28;20045;-78
2023/02/22 09:20:11;;;;;;;9.15;5.97;;;9.10;99.90;;;;;;5047071;28;20463;-78
2023/02/22 09:22:37;;;;;;;8.25;5.78;;;9.10;99.90;;;;;;5082153;28;20413;-77
2023/02/22 09:25:04;;;;;;;8.15;5.88;;;9.20;99.90;;;;;;5066582;28;20039;-77
2023/02/22 09:27:30;;;;;;;7.22;5.97;;;9.20;99.90;;;;;;5064337;28;20112;-78
2023/02/22 09:29:57;;;;;;;6.80;5.28;;;9.20;99.90;;;;;;5049348;28;20120;-77
2023/02/22 09:32:26;;;;;;;7.22;5.50;;;9.30;99.90;;;;;;5068990;28;20032;-77
2023/02/22 09:34:52;;;;;;;7.65;5.70;;;9.40;99.90;;;;;;5071450;28;20029;-77
2023/02/22 09:37:18;;;;;;;7.63;5.80;;;9.40;99.90;;;;;;5070441;28;20036;-77
2023/02/22 09:39:44;;;;;;;7.85;5.78;;;9.40;99.90;;;;;;5061219;28;20451;-77
2023/02/22 09:42:24;;;;;;;6.97;5.63;;;9.50;99.90;;;;;;5067251;28;20082;-77
2023/02/22 09:45:00;;;;;;;9.10;5.90;;;9.60;99.90;;;;;;5064617;28;20028;-78
2023/02/22 09:47:39;;;;;;;6.57;5.22;;;9.60;99.90;;;;;;5065409;28;20036;-77
2023/02/22 09:50:14;;;;;;;8.93;5.43;;;9.70;99.90;;;;;;5067620;28;20040;-77
2023/02/22 09:52:46;;;;;;;7.07;4.75;;;9.70;99.90;;;;;;5069423;28;20024;-77
2023/02/22 09:55:30;;;;;;;5.82;5.00;;;9.70;99.90;;;;;;5069804;28;20039;-77
2023/02/22 09:58:01;;;;;;;5.90;4.65;;;9.80;99.90;;;;;;5065564;28;20111;-77
2023/02/22 10:00:37;;;;;;;6.90;5.47;;;9.80;99.90;;;;;;5068420;28;20036;-77
2023/02/22 10:03:03;;;;;;;7.30;5.30;;;9.80;99.90;;;;;;5065145;28;20086;-77
2023/02/22 10:05:36;;;;;;;8.90;5.70;;;9.90;99.90;;;;;;5062715;28;20040;-77
2023/02/22 10:08:11;;;;;;;7.70;5.30;;;10.10;99.90;;;;;;5067984;28;20091;-77
2023/02/22 10:10:40;;;;;;;5.90;4.93;;;10.10;99.90;;;;;;5066753;28;20082;-77
2023/02/22 10:13:14;;;;;;;9.68;4.82;;;10.30;99.90;;;;;;5066274;28;20515;-77
2023/02/22 10:16:05;;;;;;;8.57;5.47;;;10.40;99.90;;;;;;5065944;28;20021;-77
2023/02/22 10:18:39;;;;;;;6.65;4.82;;;10.50;99.90;;;;;;5053560;28;20367;-77
2023/02/22 10:22:10;;;;;;;5.17;4.00;;;10.50;99.90;;;;;;5072803;28;20484;-77
2023/02/22 10:24:38;;;;;;;4.95;4.25;;;10.60;99.90;;;;;;5023418;28;20138;-77
2023/02/22 10:27:09;;;;;;;6.20;4.85;;;10.60;99.90;;;;;;5021160;28;20036;-77
2023/02/22 10:29:42;;;;;;;5.75;4.50;;;10.70;99.90;;;;;;5038139;28;20516;-77
2023/02/22 10:32:17;;;;;;;5.43;4.63;;;10.80;99.90;;;;;;5063826;28;20508;-77
2023/02/22 10:34:48;;;;;;;7.07;4.38;;;10.90;99.90;;;;;;5067143;28;20396;-77
2023/02/22 10:37:32;;;;;;;10.25;7.07;;;11.00;99.90;;;;;;5072609;28;20497;-77
2023/02/22 10:40:27;;;;;;;5.97;4.60;;;11.20;99.90;;;;;;5095355;28;20036;-78
2023/02/22 10:43:03;;;;;;;21.30;11.88;;;11.20;99.90;;;;;;5065490;28;20113;-77
2023/02/22 10:45:31;;;;;;;20.52;11.48;;;11.30;99.90;;;;;;5066916;28;20124;-77
2023/02/22 10:48:04;;;;;;;7.32;4.50;;;11.30;99.90;;;;;;5072072;28;20093;-77
2023/02/22 10:50:31;;;;;;;4.30;3.85;;;11.30;99.90;;;;;;5066317;28;20036;-77
2023/02/22 10:52:57;;;;;;;5.05;4.38;;;11.30;99.90;;;;;;5067886;28;20028;-77
2023/02/22 10:55:23;;;;;;;9.98;5.07;;;11.40;99.90;;;;;;5070020;28;20474;-78
2023/02/22 10:57:51;;;;;;;7.25;5.32;;;11.40;99.90;;;;;;5069336;28;20059;-77
2023/02/22 11:00:25;;;;;;;6.28;4.60;;;11.50;99.90;;;;;;5064596;28;20025;-78
2023/02/22 11:02:54;;;;;;;7.07;4.80;;;11.50;99.90;;;;;;5065717;28;20041;-78
2023/02/22 11:05:36;;;;;;;6.47;4.57;;;11.60;99.90;;;;;;5067243;28;20036;-78
2023/02/22 11:08:20;;;;;;;8.30;4.32;;;11.70;99.90;;;;;;5061679;28;20581;-77
2023/02/22 11:11:00;;;;;;;4.47;3.65;;;11.70;99.90;;;;;;5066156;28;20053;-78
2023/02/22 11:13:32;;;;;;;7.65;4.38;;;11.80;99.90;;;;;;5065511;28;20024;-78
2023/02/22 11:16:15;;;;;;;6.55;4.32;;;11.70;99.90;;;;;;5069189;28;20485;-77
2023/02/22 11:18:41;;;;;;;5.68;4.10;;;11.80;99.90;;;;;;5069619;28;20042;-77
2023/02/22 11:21:11;;;;;;;6.07;4.25;;;11.80;99.90;;;;;;5065822;28;20029;-77
2023/02/22 11:23:39;;;;;;;4.55;3.70;;;11.90;99.90;;;;;;5062390;28;20549;-77
2023/02/22 11:26:14;;;;;;;4.65;3.10;;;12.00;99.90;;;;;;5061852;28;20029;-77
2023/02/22 11:29:05;;;;;;;4.65;3.55;;;12.00;99.90;;;;;;5045633;28;20032;-78
2023/02/22 11:31:30;;;;;;;3.45;3.08;;;12.10;99.90;;;;;;5067872;28;20067;-77
2023/02/22 11:33:59;;;;;;;3.47;2.95;;;12.10;99.90;;;;;;5068942;28;20493;-77
2023/02/22 11:36:39;;;;;;;5.57;3.08;;;12.20;99.90;;;;;;5065699;28;20063;-78
2023/02/22 11:39:24;;;;;;;4.63;3.05;;;12.30;99.90;;;;;;5065693;28;20086;-77
2023/02/22 11:41:50;;;;;;;2.78;2.58;;;12.30;99.90;;;;;;5066325;28;20027;-78
2023/02/22 11:44:30;;;;;;;3.63;2.40;;;12.30;99.90;;;;;;5069122;28;20032;-77
2023/02/22 11:47:05;;;;;;;3.67;2.50;;;12.40;99.90;;;;;;5066018;28;20127;-77
2023/02/22 11:49:47;;;;;;;5.43;3.30;;;12.50;99.90;;;;;;5049454;28;20048;-77
2023/02/22 11:52:27;;;;;;;3.30;2.58;;;12.50;99.90;;;;;;5048803;28;20040;-77
2023/02/22 11:55:20;;;;;;;3.80;2.70;;;12.50;99.90;;;;;;5067155;28;20107;-77
2023/02/22 11:58:20;;;;;;;4.15;2.65;;;12.60;99.90;;;;;;5069884;28;20374;-78
2023/02/22 12:01:18;;;;;;;3.47;2.55;;;12.60;99.90;;;;;;5063637;28;20063;-77
2023/02/22 12:04:14;;;;;;;3.42;2.28;;;12.50;99.90;;;;;;5061277;28;20123;-78
2023/02/22 12:06:54;;;;;;;6.40;4.18;;;12.60;99.90;;;;;;5065550;28;20036;-78
2023/02/22 12:09:26;;;;;;;7.28;3.55;;;12.60;99.90;;;;;;5063725;28;20033;-77
2023/02/22 12:12:06;;;;;;;3.92;2.85;;;12.70;99.90;;;;;;5069128;28;20479;-78
2023/02/22 12:14:43;;;;;;;3.78;2.75;;;12.70;99.90;;;;;;5064275;28;20027;-77
2023/02/22 12:17:30;;;;;;;3.50;2.55;;;12.80;99.90;;;;;;5066500;28;20032;-77
2023/02/22 12:20:06;;;;;;;3.88;2.30;;;12.80;99.90;;;;;;5064675;28;20063;-78
2023/02/22 12:22:36;;;;;;;5.30;3.58;;;12.80;99.90;;;;;;5063637;28;20366;-76
2023/02/22 12:25:14;;;;;;;3.70;2.55;;;12.80;99.90;;;;;;5068743;28;20044;-77
2023/02/22 12:27:45;;;;;;;4.72;2.55;;;12.80;99.90;;;;;;5061563;28;20387;-77
2023/02/22 12:30:23;;;;;;;3.50;2.22;;;12.90;99.90;;;;;;5064988;28;20036;-77
2023/02/22 12:32:53;;;;;;;4.07;2.70;;;13.00;99.90;;;;;;5060990;28;20028;-78
2023/02/22 12:35:33;;;;;;;2.78;2.45;;;13.00;99.90;;;;;;5062541;28;20027;-77
2023/02/22 12:38:14;;;;;;;3.35;2.58;;;13.00;99.90;;;;;;5067784;28;20127;-77
2023/02/22 12:40:55;;;;;;;2.72;2.47;;;13.00;99.90;;;;;;5067685;28;20033;-77
2023/02/22 12:43:40;;;;;;;3.85;2.92;;;13.10;99.90;;;;;;5061291;28;20029;-76
2023/02/22 12:46:23;;;;;;;2.78;2.47;;;13.10;99.90;;;;;;5080195;28;20029;-76
2023/02/22 12:49:26;;;;;;;4.22;2.30;;;13.10;99.90;;;;;;5064783;28;20090;-77
2023/02/22 12:52:30;;;;;;;3.40;2.42;;;13.00;99.90;;;;;;5065982;28;20040;-77
2023/02/22 12:55:09;;;;;;;3.10;2.35;;;13.10;99.90;;;;;;5068553;28;20141;-76
2023/02/22 12:58:17;;;;;;;2.85;2.35;;;13.00;99.90;;;;;;5060547;28;20082;-76
2023/02/22 13:00:54;;;;;;;4.05;2.50;;;13.10;99.90;;;;;;5066321;28;20047;-77
2023/02/22 13:03:41;;;;;;;3.30;2.60;;;13.00;99.90;;;;;;5062866;28;20032;-76
2023/02/22 13:06:29;;;;;;;2.80;2.33;;;13.10;99.90;;;;;;5073663;28;20037;-77
2023/02/22 13:09:32;;;;;;;3.22;2.30;;;13.10;99.90;;;;;;5071521;28;20382;-77
2023/02/22 13:12:08;;;;;;;2.78;2.30;;;13.00;99.90;;;;;;5072967;28;20024;-77
2023/02/22 13:14:52;;;;;;;4.15;2.90;;;13.10;99.90;;;;;;5070486;28;20037;-77
2023/02/22 13:17:51;;;;;;;2.85;2.10;;;13.10;99.90;;;;;;5071641;28;20097;-78